createdAt,value
2019-04-25T00:02:13.527Z,100249.30
2019-04-25T00:04:43.534Z,100232.98
2019-04-25T00:07:13.226Z,100239.72
2019-04-25T00:09:52.685Z,100291.90
2019-04-25T00:12:23.882Z,100294.27
2019-04-25T00:14:55.232Z,100298.81
2019-04-25T00:17:26.097Z,100284.97
2019-04-25T00:19:55.759Z,100295.08
2019-04-25T00:23:02.341Z,100287.59
2019-04-25T00:25:51.210Z,100266.77
2019-04-25T00:28:22.328Z,100223.24
2019-04-25T00:30:53.084Z,100226.78
2019-04-25T00:33:22.830Z,100219.05
2019-04-25T00:35:52.828Z,100195.89
2019-04-25T00:38:22.639Z,100204.14
2019-04-25T00:40:53.514Z,100212.05
2019-04-25T00:43:23.260Z,100246.39
2019-04-25T00:45:52.918Z,100284.05
2019-04-25T00:48:22.598Z,100308.50
2019-04-25T00:50:54.605Z,100312.97
2019-04-25T00:53:23.638Z,100320.23
2019-04-25T00:55:53.880Z,100321.04
2019-04-25T00:58:43.980Z,100325.33
2019-04-25T01:01:33.157Z,100319.78
2019-04-25T01:04:02.906Z,100313.44
2019-04-25T01:06:32.671Z,100325.02
2019-04-25T01:09:03.486Z,100329.12
2019-04-25T01:11:34.854Z,100339.55
2019-04-25T01:14:04.614Z,100343.30
2019-04-25T01:16:34.284Z,100344.78
2019-04-25T01:19:03.970Z,100360.73
2019-04-25T01:21:34.035Z,100365.02
2019-04-25T01:24:04.331Z,100373.55
2019-04-25T01:26:34.460Z,100381.23
2019-04-25T01:29:04.614Z,100382.20
2019-04-25T01:31:34.785Z,100379.71
2019-04-25T01:34:07.138Z,100379.97
2019-04-25T01:36:44.314Z,100383.66
2019-04-25T01:39:34.176Z,100391.80
2019-04-25T01:42:23.612Z,100380.66
2019-04-25T01:44:56.496Z,100385.48
2019-04-25T01:47:25.883Z,100378.58
2019-04-25T01:49:56.595Z,100396.05
2019-04-25T01:52:26.378Z,100397.56
2019-04-25T01:54:57.221Z,100401.33
2019-04-25T01:57:26.955Z,100402.39
2019-04-25T01:59:57.465Z,100410.39
2019-04-25T02:02:28.821Z,100398.56
2019-04-25T02:04:59.408Z,100398.47
2019-04-25T02:07:29.984Z,100399.70
2019-04-25T02:09:59.652Z,100402.10
2019-04-25T02:12:41.013Z,100399.98
2019-04-25T02:15:13.637Z,100404.80
2019-04-25T02:17:43.995Z,100415.45
2019-04-25T02:20:14.131Z,100406.64
2019-04-25T02:22:44.217Z,100401.20
2019-04-25T02:25:15.159Z,100395.17
2019-04-25T02:27:44.847Z,100393.82
2019-04-25T02:30:15.801Z,100391.98
2019-04-25T02:32:45.482Z,100403.55
2019-04-25T02:35:16.204Z,100411.45
2019-04-25T02:37:45.853Z,100406.56
2019-04-25T02:40:18.675Z,100404.75
2019-04-25T02:42:48.346Z,100413.49
2019-04-25T02:45:45.897Z,100415.54
2019-04-25T02:48:37.385Z,100416.78
2019-04-25T02:51:31.843Z,100438.94
2019-04-25T02:54:02.741Z,100442.64
2019-04-25T02:56:37.770Z,100450.06
2019-04-25T02:59:06.975Z,100451.81
2019-04-25T03:01:35.902Z,100460.88
2019-04-25T03:04:10.662Z,100462.69
2019-04-25T03:06:37.052Z,100451.85
2019-04-25T03:09:10.010Z,100457.75
2019-04-25T03:11:39.979Z,100451.48
2019-04-25T03:14:10.336Z,100455.45
2019-04-25T03:16:41.295Z,100463.41
2019-04-25T03:19:40.295Z,100457.48
2019-04-25T03:22:12.045Z,100467.41
2019-04-25T03:24:42.913Z,100468.22
2019-04-25T03:27:14.178Z,100470.90
2019-04-25T03:29:45.680Z,100479.92
2019-04-25T03:32:19.712Z,100487.55
2019-04-25T03:34:46.982Z,100482.91
2019-04-25T03:37:16.657Z,100484.57
2019-04-25T03:39:46.332Z,100484.11
2019-04-25T03:42:15.997Z,100486.06
2019-04-25T03:44:45.667Z,100491.67
2019-04-25T03:47:15.313Z,100488.64
2019-04-25T03:49:45.138Z,100486.70
2019-04-25T03:52:14.890Z,100495.00
2019-04-25T03:54:44.570Z,100502.27
2019-04-25T03:57:14.613Z,100506.78
2019-04-25T03:59:44.459Z,100516.58
2019-04-25T04:02:15.216Z,100511.94
2019-04-25T04:04:45.018Z,100520.94
2019-04-25T04:07:15.951Z,100525.16
2019-04-25T04:09:45.789Z,100542.39
2019-04-25T04:12:15.724Z,100546.25
2019-04-25T04:14:45.608Z,100548.49
2019-04-25T04:17:27.671Z,100553.84
2019-04-25T04:20:15.957Z,100558.70
2019-04-25T04:22:53.302Z,100567.91
2019-04-25T04:26:15.972Z,100575.75
2019-04-25T04:28:45.656Z,100582.48
2019-04-25T04:31:15.474Z,100590.52
2019-04-25T04:33:45.532Z,100586.97
2019-04-25T04:36:17.715Z,100592.77
2019-04-25T04:38:46.587Z,100597.09
2019-04-25T04:41:16.460Z,100593.81
2019-04-25T04:43:46.119Z,100597.44
2019-04-25T04:46:18.221Z,100605.31
2019-04-25T04:48:47.134Z,100604.18
2019-04-25T04:51:17.777Z,100608.42
2019-04-25T04:53:48.521Z,100600.27
2019-04-25T04:56:18.180Z,100602.19
2019-04-25T04:58:47.948Z,100604.90
2019-04-25T05:01:19.286Z,100605.71
2019-04-25T05:04:05.328Z,100604.24
2019-04-25T05:06:49.636Z,100605.25
2019-04-25T05:09:28.219Z,100602.42
2019-04-25T05:11:57.883Z,100604.38
2019-04-25T05:14:27.549Z,100593.62
2019-04-25T05:16:57.230Z,100599.66
2019-04-25T05:19:26.884Z,100600.28
2019-04-25T05:21:56.559Z,100593.16
2019-04-25T05:24:26.468Z,100599.28
2019-04-25T05:26:56.207Z,100592.97
2019-04-25T05:29:26.690Z,100597.58
2019-04-25T05:31:56.494Z,100599.66
2019-04-25T05:34:26.325Z,100598.20
2019-04-25T05:36:56.009Z,100599.55
2019-04-25T05:39:25.674Z,100602.70
2019-04-25T05:42:15.135Z,100613.30
2019-04-25T05:44:45.307Z,100618.25
2019-04-25T05:47:15.984Z,100624.23
2019-04-25T05:49:46.041Z,100623.86
2019-04-25T05:52:16.074Z,100628.99
2019-04-25T05:54:45.939Z,100638.64
2019-04-25T05:57:16.542Z,100646.02
2019-04-25T05:59:46.267Z,100650.50
2019-04-25T06:02:16.022Z,100648.30
2019-04-25T06:04:45.687Z,100645.06
2019-04-25T06:07:15.384Z,100644.22
2019-04-25T06:09:54.425Z,100649.17
2019-04-25T06:12:35.511Z,100645.16
2019-04-25T06:15:06.080Z,100642.11
2019-04-25T06:17:53.442Z,100636.52
2019-04-25T06:20:29.002Z,100648.52
2019-04-25T06:23:04.811Z,100653.41
2019-04-25T06:25:39.448Z,100646.03
2019-04-25T06:28:08.457Z,100653.25
2019-04-25T06:30:38.385Z,100649.54
2019-04-25T06:33:08.068Z,100655.80
2019-04-25T06:35:39.189Z,100663.83
2019-04-25T06:38:08.860Z,100673.83
2019-04-25T06:40:38.514Z,100672.13
2019-04-25T06:43:08.191Z,100681.09
2019-04-25T06:45:55.485Z,100683.71
2019-04-25T06:48:33.871Z,100682.50
2019-04-25T06:51:03.950Z,100689.98
2019-04-25T06:53:34.669Z,100689.62
2019-04-25T06:56:05.374Z,100685.13
2019-04-25T06:58:35.235Z,100684.91
2019-04-25T07:01:05.101Z,100690.45
2019-04-25T07:03:35.771Z,100692.14
2019-04-25T07:06:05.790Z,100672.89
2019-04-25T07:08:35.609Z,100692.52
2019-04-25T07:11:05.432Z,100688.98
2019-04-25T07:13:38.607Z,100688.66
2019-04-25T07:16:06.828Z,100695.45
2019-04-25T07:18:37.369Z,100698.55
2019-04-25T07:21:07.451Z,100697.52
2019-04-25T07:23:37.119Z,100692.30
2019-04-25T07:26:13.761Z,100699.19
2019-04-25T07:28:51.918Z,100701.97
2019-04-25T07:31:55.387Z,100698.53
2019-04-25T07:34:26.501Z,100698.60
2019-04-25T07:36:57.102Z,100697.27
2019-04-25T07:39:27.505Z,100701.33
2019-04-25T07:42:15.456Z,100709.10
2019-04-25T07:44:51.972Z,100711.52
2019-04-25T07:47:16.504Z,100708.95
2019-04-25T07:49:46.196Z,100707.14
2019-04-25T07:52:15.843Z,100708.06
2019-04-25T07:54:45.516Z,100714.60
2019-04-25T07:57:15.236Z,100712.38
2019-04-25T07:59:44.902Z,100710.45
2019-04-25T08:02:14.851Z,100704.95
2019-04-25T08:04:44.576Z,100714.06
2019-04-25T08:07:14.398Z,100708.59
2019-04-25T08:09:44.335Z,100710.05
2019-04-25T08:12:13.985Z,100699.53
2019-04-25T08:14:53.856Z,100698.79
2019-04-25T08:17:41.210Z,100691.27
2019-04-25T08:20:11.429Z,100698.72
2019-04-25T08:22:54.094Z,100702.81
2019-04-25T08:25:15.223Z,100704.18
2019-04-25T08:27:45.132Z,100705.81
2019-04-25T08:30:15.432Z,100710.11
2019-04-25T08:32:45.371Z,100713.73
2019-04-25T08:35:16.089Z,100710.92
2019-04-25T08:37:45.767Z,100713.68
2019-04-25T08:40:16.283Z,100713.45
2019-04-25T08:42:46.027Z,100708.18
2019-04-25T08:45:16.951Z,100695.72
2019-04-25T08:47:46.631Z,100699.98
2019-04-25T08:50:31.321Z,100700.28
2019-04-25T08:52:59.358Z,100700.80
2019-04-25T08:55:48.057Z,100704.87
2019-04-25T08:58:43.655Z,100711.34
2019-04-25T09:01:34.207Z,100708.16
2019-04-25T09:04:17.474Z,100713.86
2019-04-25T09:06:47.420Z,100707.52
2019-04-25T09:09:17.142Z,100709.55
2019-04-25T09:11:47.063Z,100722.14
2019-04-25T09:14:16.752Z,100734.02
2019-04-25T09:16:46.645Z,100728.97
2019-04-25T09:19:16.307Z,100731.28
2019-04-25T09:21:49.393Z,100726.27
2019-04-25T09:24:17.338Z,100720.55
2019-04-25T09:26:47.021Z,100715.57
2019-04-25T09:29:19.793Z,100710.96
2019-04-25T09:31:48.254Z,100709.98
2019-04-25T09:34:18.889Z,100706.11
2019-04-25T09:36:48.612Z,100707.06
2019-04-25T09:39:26.527Z,100712.08
2019-04-25T09:41:56.263Z,100709.67
2019-04-25T09:44:31.506Z,100712.94
2019-04-25T09:47:01.191Z,100712.49
2019-04-25T09:49:35.185Z,100710.44
2019-04-25T09:52:10.776Z,100710.11
2019-04-25T09:54:54.037Z,100707.78
2019-04-25T09:57:33.962Z,100699.13
2019-04-25T10:00:04.646Z,100704.46
2019-04-25T10:02:36.901Z,100708.77
2019-04-25T10:05:06.946Z,100713.61
2019-04-25T10:07:37.304Z,100708.56
2019-04-25T10:10:07.475Z,100711.02
2019-04-25T10:12:37.436Z,100708.78
2019-04-25T10:15:18.149Z,100704.87
2019-04-25T10:17:48.114Z,100715.30
2019-04-25T10:20:19.327Z,100716.13
2019-04-25T10:22:49.075Z,100722.48
2019-04-25T10:25:19.311Z,100714.02
2019-04-25T10:27:49.418Z,100710.67
2019-04-25T10:30:23.381Z,100711.64
2019-04-25T10:32:51.201Z,100702.98
2019-04-25T10:35:21.009Z,100705.30
2019-04-25T10:37:50.820Z,100706.41
2019-04-25T10:40:21.141Z,100707.19
2019-04-25T10:42:50.953Z,100698.58
2019-04-25T10:45:23.646Z,100696.57
2019-04-25T10:47:53.348Z,100688.59
2019-04-25T10:50:23.900Z,100675.94
2019-04-25T10:52:54.331Z,100684.78
2019-04-25T10:55:24.321Z,100680.08
2019-04-25T10:57:55.076Z,100678.53
2019-04-25T11:00:31.807Z,100671.85
2019-04-25T11:03:10.676Z,100676.05
2019-04-25T11:05:40.568Z,100673.12
2019-04-25T11:08:11.263Z,100666.67
2019-04-25T11:10:42.189Z,100665.44
2019-04-25T11:13:12.439Z,100655.38
2019-04-25T11:15:43.374Z,100656.91
2019-04-25T11:18:15.245Z,100652.77
2019-04-25T11:20:45.187Z,100643.19
2019-04-25T11:23:15.248Z,100642.04
2019-04-25T11:25:46.141Z,100640.25
2019-04-25T11:28:16.554Z,100645.38
2019-04-25T11:30:47.931Z,100644.20
2019-04-25T11:33:18.531Z,100647.16
2019-04-25T11:35:49.030Z,100650.64
2019-04-25T11:38:26.064Z,100651.64
2019-04-25T11:41:01.527Z,100632.77
2019-04-25T11:43:31.216Z,100636.30
2019-04-25T11:46:00.948Z,100633.80
2019-04-25T11:48:30.624Z,100634.63
2019-04-25T11:51:01.260Z,100646.20
2019-04-25T11:53:31.006Z,100644.27
2019-04-25T11:56:00.678Z,100645.69
2019-04-25T11:58:30.423Z,100635.66
2019-04-25T12:01:00.089Z,100635.88
2019-04-25T12:03:29.831Z,100638.89
2019-04-25T12:05:59.481Z,100624.77
2019-04-25T12:08:29.237Z,100625.02
2019-04-25T12:10:59.003Z,100625.73
2019-04-25T12:13:28.637Z,100628.91
2019-04-25T12:15:58.593Z,100627.11
2019-04-25T12:18:28.393Z,100635.09
2019-04-25T12:20:59.025Z,100634.56
2019-04-25T12:23:28.702Z,100622.22
2019-04-25T12:25:58.367Z,100613.39
2019-04-25T12:28:28.039Z,100620.25
2019-04-25T12:30:57.699Z,100625.17
2019-04-25T12:33:27.383Z,100623.33
2019-04-25T12:35:57.041Z,100619.52
2019-04-25T12:38:26.801Z,100619.52
2019-04-25T12:40:56.451Z,100619.72
2019-04-25T12:43:27.776Z,100620.27
2019-04-25T12:46:14.843Z,100620.95
2019-04-25T12:48:45.883Z,100622.63
2019-04-25T12:51:16.241Z,100620.14
2019-04-25T12:53:46.579Z,100608.32
2019-04-25T12:56:20.173Z,100614.86
2019-04-25T12:58:48.732Z,100621.57
2019-04-25T13:01:18.406Z,100617.52
2019-04-25T13:03:48.205Z,100624.63
2019-04-25T13:06:17.955Z,100625.50
2019-04-25T13:08:48.717Z,100626.47
2019-04-25T13:11:19.322Z,100621.42
2019-04-25T13:13:49.091Z,100616.59
2019-04-25T13:16:18.838Z,100624.02
2019-04-25T13:18:48.574Z,100619.80
2019-04-25T13:21:18.233Z,100620.36
2019-04-25T13:23:49.081Z,100623.97
2019-04-25T13:26:20.401Z,100619.38
2019-04-25T13:29:18.279Z,100618.95
2019-04-25T13:32:16.904Z,100620.91
2019-04-25T13:34:47.343Z,100607.77
2019-04-25T13:37:17.022Z,100611.06
2019-04-25T13:39:46.714Z,100607.52
2019-04-25T13:42:16.815Z,100606.73
2019-04-25T13:44:46.572Z,100606.87
2019-04-25T13:47:16.523Z,100601.30
2019-04-25T13:49:46.278Z,100611.50
2019-04-25T13:52:17.709Z,100609.36
2019-04-25T13:54:47.402Z,100593.20
2019-04-25T13:57:17.055Z,100593.05
2019-04-25T13:59:46.809Z,100589.36
2019-04-25T14:02:17.015Z,100593.98
2019-04-25T14:04:46.714Z,100588.93
2019-04-25T14:07:16.492Z,100577.94
2019-04-25T14:09:46.270Z,100590.41
2019-04-25T14:12:16.996Z,100580.58
2019-04-25T14:14:46.822Z,100584.17
2019-04-25T14:17:38.678Z,100575.53
2019-04-25T14:20:16.614Z,100570.77
2019-04-25T14:22:46.446Z,100575.04
2019-04-25T14:25:16.187Z,100577.11
2019-04-25T14:27:45.921Z,100583.23
2019-04-25T14:30:17.591Z,100588.13
2019-04-25T14:32:47.390Z,100570.88
2019-04-25T14:35:17.058Z,100568.30
2019-04-25T14:37:46.737Z,100562.95
2019-04-25T14:40:16.644Z,100568.70
2019-04-25T14:42:46.476Z,100563.44
2019-04-25T14:45:16.883Z,100553.91
2019-04-25T14:47:46.595Z,100564.45
2019-04-25T14:50:16.473Z,100556.17
2019-04-25T14:52:47.117Z,100552.56
2019-04-25T14:55:37.664Z,100554.75
2019-04-25T14:58:13.266Z,100543.70
2019-04-25T15:00:44.807Z,100550.14
2019-04-25T15:03:14.463Z,100552.46
2019-04-25T15:05:44.223Z,100546.30
2019-04-25T15:08:14.770Z,100546.67
2019-04-25T15:10:48.265Z,100545.81
2019-04-25T15:13:17.121Z,100539.34
2019-04-25T15:15:46.787Z,100535.52
2019-04-25T15:18:16.560Z,100531.58
2019-04-25T15:20:46.307Z,100522.74
2019-04-25T15:23:15.980Z,100528.77
2019-04-25T15:25:45.670Z,100522.59
2019-04-25T15:28:15.339Z,100525.95
2019-04-25T15:30:45.942Z,100524.34
2019-04-25T15:33:15.659Z,100516.13
2019-04-25T15:35:53.810Z,100513.86
2019-04-25T15:38:33.545Z,100524.10
2019-04-25T15:41:09.470Z,100520.48
2019-04-25T15:43:47.615Z,100524.99
2019-04-25T15:46:22.825Z,100506.47
2019-04-25T15:48:52.482Z,100502.54
2019-04-25T15:51:22.152Z,100513.52
2019-04-25T15:53:51.803Z,100511.30
2019-04-25T15:56:21.475Z,100508.39
2019-04-25T15:58:51.310Z,100507.09
2019-04-25T16:01:21.547Z,100506.66
2019-04-25T16:03:52.596Z,100504.87
2019-04-25T16:06:22.734Z,100506.04
2019-04-25T16:08:52.675Z,100499.11
2019-04-25T16:11:22.349Z,100500.45
2019-04-25T16:13:51.996Z,100496.58
2019-04-25T16:16:21.689Z,100494.22
2019-04-25T16:18:51.359Z,100491.68
2019-04-25T16:21:21.119Z,100482.13
2019-04-25T16:23:50.866Z,100485.31
2019-04-25T16:26:20.514Z,100479.19
2019-04-25T16:28:50.187Z,100478.35
2019-04-25T16:31:22.443Z,100477.15
2019-04-25T16:33:52.403Z,100482.06
2019-04-25T16:36:22.049Z,100476.81
2019-04-25T16:38:51.806Z,100472.55
2019-04-25T16:41:21.552Z,100470.76
2019-04-25T16:43:55.200Z,100469.48
2019-04-25T16:46:25.749Z,100465.22
2019-04-25T16:48:55.508Z,100467.84
2019-04-25T16:51:25.705Z,100471.68
2019-04-25T16:53:55.378Z,100473.28
2019-04-25T16:56:25.037Z,100468.95
2019-04-25T16:58:54.734Z,100469.94
2019-04-25T17:01:24.464Z,100469.91
2019-04-25T17:03:54.210Z,100466.78
2019-04-25T17:06:24.245Z,100464.70
2019-04-25T17:08:53.923Z,100459.79
2019-04-25T17:11:23.662Z,100466.02
2019-04-25T17:14:05.350Z,100465.73
2019-04-25T17:16:53.364Z,100473.56
2019-04-25T17:19:38.957Z,100468.36
2019-04-25T17:22:09.678Z,100471.08
2019-04-25T17:24:41.221Z,100472.14
2019-04-25T17:27:11.299Z,100472.02
2019-04-25T17:29:40.955Z,100475.33
2019-04-25T17:32:18.992Z,100471.34
2019-04-25T17:35:04.313Z,100466.52
2019-04-25T17:37:40.780Z,100465.73
2019-04-25T17:40:16.845Z,100467.16
2019-04-25T17:42:46.536Z,100461.36
2019-04-25T17:45:20.768Z,100463.45
2019-04-25T17:47:54.555Z,100457.37
2019-04-25T17:50:21.898Z,100464.70
2019-04-25T17:52:51.570Z,100469.20
2019-04-25T17:55:21.265Z,100469.87
2019-04-25T17:57:53.560Z,100469.59
2019-04-25T18:00:37.772Z,100462.41
2019-04-25T18:03:10.038Z,100464.58
2019-04-25T18:05:40.257Z,100466.30
2019-04-25T18:08:10.001Z,100460.70
2019-04-25T18:10:39.670Z,100460.10
2019-04-25T18:13:09.687Z,100455.09
2019-04-25T18:15:46.006Z,100465.20
2019-04-25T18:18:28.138Z,100459.96
2019-04-25T18:20:57.780Z,100456.36
2019-04-25T18:23:45.242Z,100445.84
2019-04-25T18:26:21.630Z,100441.20
2019-04-25T18:28:53.664Z,100429.95
2019-04-25T18:31:23.326Z,100444.22
2019-04-25T18:33:56.272Z,100444.27
2019-04-25T18:36:43.628Z,100443.44
2019-04-25T18:39:25.635Z,100437.76
2019-04-25T18:42:20.206Z,100437.76
2019-04-25T18:44:49.903Z,100443.87
2019-04-25T18:47:19.555Z,100445.29
2019-04-25T18:49:49.225Z,100444.38
2019-04-25T18:52:49.491Z,100451.41
2019-04-25T18:55:31.025Z,100451.41
2019-04-25T18:58:08.152Z,100445.53
2019-04-25T19:00:44.281Z,100452.08
2019-04-25T19:03:31.687Z,100452.08
2019-04-25T19:06:03.992Z,100447.19
2019-04-25T19:08:33.736Z,100450.64
2019-04-25T19:11:03.703Z,100450.06
2019-04-25T19:13:33.444Z,100451.41
2019-04-25T19:16:03.219Z,100443.91
2019-04-25T19:18:33.001Z,100446.55
2019-04-25T19:21:02.880Z,100446.70
2019-04-25T19:23:32.674Z,100446.96
2019-04-25T19:26:02.346Z,100448.95
2019-04-25T19:28:32.015Z,100432.16
2019-04-25T19:31:01.691Z,100443.70
2019-04-25T19:33:35.904Z,100434.41
2019-04-25T19:36:02.810Z,100438.56
2019-04-25T19:38:32.592Z,100442.69
2019-04-25T19:41:13.549Z,100442.94
2019-04-25T19:43:49.431Z,100441.55
2019-04-25T19:46:20.185Z,100443.45
2019-04-25T19:48:51.182Z,100438.28
2019-04-25T19:51:20.995Z,100437.59
2019-04-25T19:53:51.289Z,100437.70
2019-04-25T19:56:21.002Z,100437.23
2019-04-25T19:58:50.763Z,100439.50
2019-04-25T20:01:20.468Z,100439.05
2019-04-25T20:03:58.525Z,100440.80
2019-04-25T20:06:45.592Z,100443.05
2019-04-25T20:09:32.892Z,100442.34
2019-04-25T20:12:02.989Z,100433.41
2019-04-25T20:14:32.872Z,100437.18
2019-04-25T20:17:02.569Z,100441.30
2019-04-25T20:19:32.223Z,100435.28
2019-04-25T20:22:01.903Z,100441.18
2019-04-25T20:24:32.853Z,100434.83
2019-04-25T20:27:02.626Z,100431.31
2019-04-25T20:29:32.440Z,100434.58
2019-04-25T20:32:02.291Z,100428.84
2019-04-25T20:34:31.967Z,100436.84
2019-04-25T20:37:01.642Z,100433.08
2019-04-25T20:39:31.324Z,100425.89
2019-04-25T20:42:01.019Z,100428.72
2019-04-25T20:44:30.742Z,100428.36
2019-04-25T20:47:00.414Z,100428.02
2019-04-25T20:49:30.087Z,100421.31
2019-04-25T20:51:59.765Z,100424.03
2019-04-25T20:54:29.426Z,100418.73
2019-04-25T20:56:59.102Z,100411.67
2019-04-25T20:59:28.765Z,100406.40
2019-04-25T21:01:58.452Z,100405.70
2019-04-25T21:04:40.087Z,100408.86
2019-04-25T21:07:10.349Z,100404.76
2019-04-25T21:09:40.292Z,100401.95
2019-04-25T21:12:10.128Z,100405.58
2019-04-25T21:15:01.371Z,100405.58
2019-04-25T21:17:40.806Z,100401.91
2019-04-25T21:20:10.917Z,100407.78
2019-04-25T21:22:40.616Z,100406.97
2019-04-25T21:25:10.945Z,100403.54
2019-04-25T21:27:40.704Z,100404.58
2019-04-25T21:30:11.392Z,100406.78
2019-04-25T21:32:55.237Z,100409.47
2019-04-25T21:35:25.611Z,100408.42
2019-04-25T21:37:55.509Z,100404.41
2019-04-25T21:40:31.129Z,100408.97
2019-04-25T21:43:05.277Z,100405.42
2019-04-25T21:45:35.201Z,100409.30
2019-04-25T21:48:05.205Z,100409.95
2019-04-25T21:50:35.153Z,100410.08
2019-04-25T21:53:05.185Z,100403.61
2019-04-25T21:55:35.135Z,100400.80
2019-04-25T21:58:05.151Z,100396.26
2019-04-25T22:00:53.818Z,100406.27
2019-04-25T22:03:25.023Z,100399.94
2019-04-25T22:05:55.792Z,100405.21
2019-04-25T22:08:26.467Z,100398.88
2019-04-25T22:10:57.238Z,100401.12
2019-04-25T22:13:27.195Z,100396.44
2019-04-25T22:15:57.390Z,100395.36
2019-04-25T22:18:27.729Z,100399.02
2019-04-25T22:20:58.283Z,100400.76
2019-04-25T22:23:29.064Z,100403.95
2019-04-25T22:25:59.100Z,100401.83
2019-04-25T22:28:29.590Z,100398.41
2019-04-25T22:31:01.397Z,100398.31
2019-04-25T22:33:55.452Z,100393.24
2019-04-25T22:36:24.220Z,100393.01
2019-04-25T22:39:12.209Z,100396.77
2019-04-25T22:41:46.837Z,100394.17
2019-04-25T22:44:17.606Z,100388.92
2019-04-25T22:46:47.775Z,100386.34
2019-04-25T22:49:17.482Z,100384.70
2019-04-25T22:51:47.144Z,100389.86
2019-04-25T22:54:17.105Z,100382.67
2019-04-25T22:56:46.771Z,100381.27
2019-04-25T22:59:16.736Z,100382.80
2019-04-25T23:01:54.119Z,100384.67
2019-04-25T23:04:44.281Z,100378.66
2019-04-25T23:07:14.401Z,100379.95
2019-04-25T23:09:44.079Z,100378.73
2019-04-25T23:12:14.145Z,100382.25
2019-04-25T23:14:44.140Z,100376.74
2019-04-25T23:17:13.814Z,100368.52
2019-04-25T23:19:43.759Z,100366.48
2019-04-25T23:22:13.635Z,100370.60
2019-04-25T23:24:52.235Z,100364.25
2019-04-25T23:27:32.413Z,100354.86
2019-04-25T23:30:02.091Z,100351.56
2019-04-25T23:32:33.095Z,100353.66
2019-04-25T23:35:02.782Z,100350.61
2019-04-25T23:37:32.766Z,100354.92
2019-04-25T23:40:02.459Z,100338.73
2019-04-25T23:42:32.119Z,100341.07
2019-04-25T23:45:02.383Z,100341.31
2019-04-25T23:47:33.208Z,100335.91
2019-04-25T23:50:03.409Z,100340.14
2019-04-25T23:52:33.206Z,100337.89
2019-04-25T23:55:02.887Z,100335.20
2019-04-25T23:57:32.569Z,100330.50
